Pierre, SD

4:17 AM CDT on July 28, 2014 (GMT -0500)
Winner (KICR) Elev 2031 ft | 43.39 °N, 99.84 °W | Change Station

Current weather conditions updated 24 minutes ago

Clear
Clear
55 °F
Feels Like 55 °F
N
5
Wind Variable Wind from WSW

Today is forecast to be Cooler than yesterday.

Today
High -- | Low -- °F
--% Chance of Precip.
Yesterday
High -- | Low -- °F
Precip. -- in
6:23 AM 9:10 PM
New Moon, 2% visible
Pressure 30.29 in
Visibility 10.0 miles
Clouds Clear
Dew Point 52 °F
Humidity 89%
Rainfall 0.00 in
Snow Depth Not available.
UV 0 out of 12
Pollen 7.30 out of 12
Air Quality Not available.
Flu Activity Not available.
METAR KICR 280853Z AUTO 25004KT 10SM CLR 13/11 A3032 RMK AO2 SLP256 T01280111 51005

More Conditions Fewer Conditions

Pressure 30.29 in
Visibility 10.0 miles
Clouds Clear
Dew Point 52 °F
Humidity 89%
Rainfall 0.00 in
Snow Depth Not available.
UV 0 out of 12
Pollen 7.30 out of 12
Air Quality Not available.
Flu Activity Not available.
METAR KICR 280853Z AUTO 25004KT 10SM CLR 13/11 A3032 RMK AO2 SLP256 T01280111 51005

More Conditions Fewer Conditions

10-Day Weather Forecast

Almanac

Astronomy

Jul. 28, 2014 Rise Set
Actual Time 6:23 AM CDT 9:10 PM CDT
Civil Twilight 5:49 AM CDT 9:44 PM CDT
Nautical Twilight 5:06 AM CDT 10:26 PM CDT
Astronomical Twilight 4:16 AM CDT 11:16 PM CDT
Moon 8:12 AM CDT 9:45 PM CDT
Length of Visible Light 15h 54m
Length of Day
14h 47m
Tomorrow will be 2m 14s shorter.
New Moon, 2% of the Moon is Illuminated
Today
New Moon
Aug 3
First Quarter
Aug 10
Full
Aug 17
Last Quarter
Aug 25
New

Today's Extremes

State Highs State Lows

Community

WunderPhotos

Upload Photos

1,738,296 photos uploaded!

Nearby

Snow Depth

Station Depth Elevation
North Rapid Creek 0 in 6130 ft
Blind Park 1 in 6890 ft

Earthquake Activity

City Distance Mag. Time & Date
No recent earthquake activity has been reported nearby.
Minimum magnitude displayed is 2.5.

Coastal Water Temperatures

Place Temperature
No Stations Reporting

Nearby Weather Stations

Station Location Temp. Dew Point Humidity Wind Precip. Elev Updated Type
2 miles north of airport, Pierre, SD 55.2 °F 55 °F 100% North  at  3.0 mph 0.00 in / hr 1818 ft 4:17 AM CDT Rapid Fire
Near Jefferson School, Pierre, SD 54.9 °F 51 °F 86% SSE  at  0.0 mph - / hr 1588 ft 4:03 AM CDT Normal
East of Hospital; Pierre, SD, Pierre, SD 56.8 °F 54 °F 89% SSE  at  0.0 mph 0.00 in / hr 1430 ft 4:15 AM CDT Normal
HADS MISSOURI RIVER AT PIERRE SD, Fort Pierre, SD 59 °F - - North  at  - 0.00 in / hr 1414 ft 2:15 AM MDT MADIS
HADS BAD RIVER NEAR FORT PIERRE SD, Fort Pierre, SD 54 °F - - North  at  - 0.00 in / hr 1430 ft 2:30 AM MDT MADIS
RAWS FORT PIERRE SD, Vivian, SD 57 °F 53 °F 88% SSE  at  3 mph 0.00 in / hr 2273 ft 2:59 AM CDT MADIS

Show More Stations Show Fewer Stations